Flight Track Log - Related Links

Times and Time Zones

All times are in EDT time to prevent confusion due to time zone crossing. See the UPS984 flight status page for this flight to view local times or setup timezone preferences in your user account.

Time Position Orientation Groundspeed Altitude Reporting Facility
EDT Latitude Longitude Course Direction KTS MPH feet Rate Location/Type
Tue 05:17:28 AM 34.0550 -117.6110 320° Northwest 80 92  Level FlightAware ADS-B
Tue 05:18:02 AM 34.0550 -117.5810 90° East 175 201 1,500 2,418 Climbing FlightAware ADS-B
Tue 05:18:35 AM 34.0430 -117.5540 118° Southeast 194 223 2,700 1,846 Climbing FlightAware ADS-B
Tue 05:19:20 AM 34.0100 -117.5800 213° Southwest 233 268 3,900 1,926 Climbing FlightAware ADS-B
Tue 05:19:56 AM 34.0220 -117.6230 289° West 245 282 5,300 2,100 Climbing FlightAware ADS-B
Tue 05:20:20 AM 34.0330 -117.6550 293° West 266 306 6,000 1,325 Climbing FlightAware ADS-B
Tue 05:21:13 AM 34.0580 -117.7280 292° West 264 304 7,000 1,364 Climbing FlightAware ADS-B
Tue 05:21:48 AM 34.0750 -117.7770 293° West 269 310 8,000 2,032 Climbing FlightAware ADS-B
Tue 05:22:15 AM 34.0937 -117.8098 305° West 273 314 9,100 2,455 Climbing FlightAware ADS-B
Tue 05:22:32 AM 34.1074 -117.8302 309° West 279 321 9,800 1,701 Climbing FlightAware ADS-B
Tue 05:23:22 AM 34.1510 -117.8930 310° West 320 368 11,000 1,350 Climbing FlightAware ADS-B
Tue 05:23:52 AM 34.1820 -117.9380 310° West 355 409 11,600 1,569 Climbing FlightAware ADS-B
Tue 05:24:27 AM 34.2200 -117.9940 309° West 389 448 12,700 2,651 Climbing FlightAware ADS-B
Tue 05:25:18 AM 34.2830 -118.0750 313° West 403 464 15,400 3,200 Climbing FlightAware ADS-B
Tue 05:25:57 AM 34.3500 -118.1070 338° Northwest 415 478 17,500 2,929 Climbing FlightAware ADS-B
Tue 05:26:42 AM 34.4380 -118.1360 345° North 432 497 19,500 2,634 Climbing FlightAware ADS-B
Tue 05:27:19 AM 34.5120 -118.1610 344° North 440 506 21,100 2,160 Climbing FlightAware ADS-B
Tue 05:28:22 AM 34.6340 -118.2010 345° North 457 526 23,100 1,955 Climbing FlightAware ADS-B
Tue 05:28:48 AM 34.6890 -118.2190 345° North 465 535 24,000 2,032 Climbing FlightAware ADS-B
Tue 05:29:24 AM 34.7650 -118.2440 345° North 475 547 25,200 1,875 Climbing FlightAware ADS-B
Tue 05:30:08 AM 34.8600 -118.2760 345° North 486 559 26,500 2,074 Climbing FlightAware ADS-B
Tue 05:30:45 AM 34.9390 -118.3020 345° North 484 557 28,000 2,320 Climbing FlightAware ADS-B
Tue 05:31:23 AM 35.0240 -118.3300 345° North 482 555 29,400 2,047 Climbing FlightAware ADS-B
Tue 05:32:10 AM 35.1270 -118.3650 344° North 481 554 30,900 1,899 Climbing FlightAware ADS-B
Tue 05:32:42 AM 35.1950 -118.3870 345° North 478 550 31,900 1,595 Climbing FlightAware ADS-B
Tue 05:33:29 AM 35.2960 -118.4210 345° North 478 550 33,000 1,385 Climbing FlightAware ADS-B
Tue 05:34:13 AM 35.3900 -118.4530 344° North 477 549 34,000 714 Climbing FlightAware ADS-B
Tue 05:34:53 AM 35.4750 -118.4820 344° North 479 551 34,000  Level FlightAware ADS-B
Tue 05:35:25 AM 35.5420 -118.5040 345° North 481 554 34,000  Level FlightAware ADS-B
Tue 05:36:00 AM 35.6190 -118.5300 345° North 481 554 34,000  Level FlightAware ADS-B
Tue 05:36:41 AM 35.7060 -118.5600 344° North 479 551 34,000  Level FlightAware ADS-B
Tue 05:37:16 AM 35.7790 -118.5860 344° North 482 555 34,000  Level FlightAware ADS-B
Tue 05:38:14 AM 35.9070 -118.6300 344° North 482 555 34,000  Level FlightAware ADS-B
Tue 05:39:01 AM 36.0070 -118.6640 345° North 480 552 34,000  Level FlightAware ADS-B
Tue 05:39:40 AM 36.0900 -118.6930 344° North 479 551 34,000  Level FlightAware ADS-B
Tue 05:40:45 AM 36.2300 -118.7420 344° North 477 549 34,000  Level FlightAware ADS-B
Tue 05:41:22 AM 36.3070 -118.7690 344° North 477 549 34,000  Level FlightAware ADS-B
Tue 05:41:57 AM 36.3820 -118.7950 344° North 476 548 34,000  Level FlightAware ADS-B
Tue 05:42:38 AM 36.4690 -118.8260 344° North 475 547 34,000  Level FlightAware ADS-B
Tue 05:43:26 AM 36.5690 -118.8610 344° North 471 542 34,000  Level FlightAware ADS-B
Tue 05:44:01 AM 36.6430 -118.8870 344° North 472 543 34,000  Level FlightAware ADS-B
Tue 05:44:46 AM 36.7390 -118.9210 344° North 471 542 34,000  Level FlightAware ADS-B
Tue 05:45:16 AM 36.8020 -118.9430 344° North 471 542 34,000  Level FlightAware ADS-B
Tue 05:46:26 AM 36.9460 -118.9940 344° North 466 536 34,000  Level FlightAware ADS-B
Tue 05:47:01 AM 37.0190 -119.0210 344° North 465 535 34,000  Level FlightAware ADS-B
Tue 05:47:43 AM 37.1060 -119.0510 345° North 464 534 34,000  Level FlightAware ADS-B
Tue 05:48:22 AM 37.1870 -119.0800 344° North 464 534 34,000  Level FlightAware ADS-B
Tue 05:48:50 AM 37.2450 -119.1010 344° North 463 533 34,000  Level FlightAware ADS-B
Tue 05:49:27 AM 37.3200 -119.1280 344° North 462 532 34,000  Level FlightAware ADS-B
Tue 05:50:47 AM 37.4850 -119.1880 344° North 461 531 34,000  Level FlightAware ADS-B
Tue 05:51:26 AM 37.5670 -119.2170 344° North 461 531 34,000  Level FlightAware ADS-B
Tue 05:51:58 AM 37.6310 -119.2410 343° North 462 532 34,000  Level FlightAware ADS-B
Tue 05:52:46 AM 37.7290 -119.2760 344° North 459 528 34,000  Level FlightAware ADS-B
Tue 05:53:14 AM 37.7850 -119.2970 343° North 458 527 34,000  Level FlightAware ADS-B
Tue 05:53:58 AM 37.8760 -119.3300 344° North 456 525 34,000  Level FlightAware ADS-B
Tue 05:54:42 AM 37.9650 -119.3620 344° North 452 520 34,000  Level FlightAware ADS-B
Tue 05:55:10 AM 38.0220 -119.3830 344° North 451 519 34,000  Level FlightAware ADS-B
Tue 05:55:44 AM 38.0900 -119.4080 344° North 453 521 34,000  Level FlightAware ADS-B
Tue 05:56:04 AM 38.1290 -119.4230 343° North 452 520 34,000  Level FlightAware ADS-B
Tue 05:57:12 AM 38.2675 -119.4737 344° North 453 521 34,000  Level FlightAware ADS-B
Tue 05:57:58 AM 38.3558 -119.5063 344° North 451 519 34,000  Level FlightAware ADS-B
Tue 05:58:32 AM 38.4288 -119.5335 344° North 450 518 34,000  Level FlightAware ADS-B
Tue 05:59:21 AM 38.5248 -119.5690 344° North 452 520 34,000  Level FlightAware ADS-B
Tue 05:59:52 AM 38.5882 -119.5926 344° North 451 519 34,000  Level FlightAware ADS-B
Tue 06:00:31 AM 38.6577 -119.6184 344° North 451 519 34,000  Level FlightAware ADS-B
Tue 06:01:02 AM 38.7224 -119.6429 344° North 450 518 34,000  Level FlightAware ADS-B
Tue 06:01:32 AM 38.7840 -119.6658 344° North 449 517 34,000  Level FlightAware ADS-B
Tue 06:02:02 AM 38.8490 -119.6903 344° North 449 517 34,000  Level FlightAware ADS-B
Tue 06:02:32 AM 38.9088 -119.7129 344° North 450 518 34,000  Level FlightAware ADS-B
Tue 06:03:12 AM 38.9886 -119.7429 344° North 452 520 34,000  Level FlightAware ADS-B
Tue 06:03:42 AM 39.0385 -119.7617 344° North 453 521 34,000  Level FlightAware ADS-B
Tue 06:04:12 AM 39.1083 -119.7880 344° North 453 521 34,000  Level FlightAware ADS-B
Tue 06:04:42 AM 39.1691 -119.8111 344° North 452 520 34,000  Level FlightAware ADS-B
Tue 06:05:12 AM 39.2282 -119.8335 344° North 450 518 34,000  Level FlightAware ADS-B
Tue 06:05:50 AM 39.3057 -119.8629 344° North 450 518 34,000  Level FlightAware ADS-B
Tue 06:06:21 AM 39.3672 -119.8863 344° North 449 517 34,000  Level FlightAware ADS-B
Tue 06:06:52 AM 39.4272 -119.9094 343° North 450 518 34,000  Level FlightAware ADS-B
Tue 06:07:22 AM 39.4883 -119.9329 343° North 451 519 34,000  Level FlightAware ADS-B
Tue 06:07:52 AM 39.5471 -119.9554 344° North 450 518 34,000  Level FlightAware ADS-B
Tue 06:08:22 AM 39.6073 -119.9783 344° North 449 517 34,000  Level FlightAware ADS-B
Tue 06:08:52 AM 39.6671 -120.0013 344° North 447 514 34,000  Level FlightAware ADS-B
Tue 06:09:22 AM 39.7268 -120.0243 343° North 446 513 34,000  Level FlightAware ADS-B
Tue 06:09:52 AM 39.7860 -120.0474 343° North 445 512 34,000  Level FlightAware ADS-B
Tue 06:10:22 AM 39.8450 -120.0701 344° North 444 511 34,000  Level FlightAware ADS-B
Tue 06:10:52 AM 39.9045 -120.0935 343° North 443 510 34,000  Level FlightAware ADS-B
Tue 06:11:22 AM 39.9636 -120.1161 344° North 443 510 34,000  Level FlightAware ADS-B
Tue 06:11:52 AM 40.0218 -120.1387 343° North 442 509 34,000  Level FlightAware ADS-B
Tue 06:12:22 AM 40.0803 -120.1616 343° North 441 507 34,000  Level FlightAware ADS-B
Tue 06:12:52 AM 40.1391 -120.1844 343° North 441 507 34,000  Level FlightAware ADS-B
Tue 06:13:22 AM 40.1972 -120.2072 343° North 440 506 34,000  Level FlightAware ADS-B
Tue 06:13:52 AM 40.2563 -120.2302 343° North 439 505 34,000  Level FlightAware ADS-B
Tue 06:14:22 AM 40.3128 -120.2524 343° North 439 505 34,000  Level FlightAware ADS-B
Tue 06:14:52 AM 40.3732 -120.2763 343° North 440 506 34,000  Level FlightAware ADS-B
Tue 06:15:22 AM 40.4302 -120.2984 344° North 440 506 34,000  Level FlightAware ADS-B
Tue 06:15:52 AM 40.4890 -120.3217 343° North 441 507 34,000  Level FlightAware ADS-B
Tue 06:16:22 AM 40.5479 -120.3450 343° North 442 509 34,000  Level FlightAware ADS-B
Tue 06:16:52 AM 40.6023 -120.3665 343° North 443 510 34,000  Level FlightAware ADS-B
Tue 06:17:22 AM 40.6656 -120.3917 343° North 445 512 34,000  Level FlightAware ADS-B
Tue 06:17:52 AM 40.7249 -120.4156 343° North 444 511 34,000  Level FlightAware ADS-B
Tue 06:18:22 AM 40.7835 -120.4387 343° North 443 510 34,000  Level FlightAware ADS-B
Tue 06:18:52 AM 40.8420 -120.4620 343° North 442 509 34,000  Level FlightAware ADS-B
Tue 06:19:22 AM 40.9010 -120.4854 343° North 441 507 34,000  Level FlightAware ADS-B
Tue 06:19:52 AM 40.9587 -120.5087 343° North 441 507 34,000  Level FlightAware ADS-B
Tue 06:20:31 AM 41.0133 -120.5314 343° North 437 503 34,000  Level Oakland Center
Tue 06:21:35 AM 41.1567 -120.5881 343° North 440 506 34,000  Level Seattle Center
Tue 06:22:35 AM 41.2733 -120.6358 343° North 439 505 34,000  Level Seattle Center
Tue 06:23:36 AM 41.3897 -120.6825 343° North 439 505 34,000  Level Seattle Center
Tue 06:24:36 AM 41.5064 -120.7300 343° North 439 505 34,000  Level Seattle Center
Tue 06:25:36 AM 41.6222 -120.7775 343° North 437 503 34,000  Level Seattle Center
Tue 06:26:36 AM 41.7375 -120.8250 343° North 435 501 34,000  Level Seattle Center
Tue 06:27:36 AM 41.8522 -120.8719 343° North 434 499 34,000  Level Seattle Center
Tue 06:28:36 AM 41.9669 -120.9192 343° North 433 498 34,000  Level Seattle Center
Tue 06:29:36 AM 42.0814 -120.9669 343° North 433 498 34,000  Level Seattle Center
Tue 06:30:36 AM 42.1956 -121.0142 343° North 432 497 34,000  Level Seattle Center
Tue 06:31:36 AM 42.3094 -121.0622 343° North 431 496 34,000  Level Seattle Center
Tue 06:32:37 AM 42.4233 -121.1094 343° North 430 495 34,000  Level Seattle Center
Tue 06:33:37 AM 42.5369 -121.1578 343° North 429 494 34,000  Level Seattle Center
Tue 06:34:37 AM 42.6503 -121.2056 343° North 429 494 34,000  Level Seattle Center
Tue 06:35:37 AM 42.7633 -121.2533 343° North 428 493 34,000  Level Seattle Center
Tue 06:40:56 AM 43.3700 -121.5140 343° North 417 480 34,000  Level FlightAware ADS-B
Tue 06:41:47 AM 43.4500 -121.5500 342° North 417 480 34,000  Level FlightAware ADS-B
Tue 06:41:57 AM 43.4810 -121.5620 344° North 410 472 34,000  Level FlightAware ADS-B
Tue 06:42:59 AM 43.5760 -121.6050 342° North 410 472 34,000  Level FlightAware ADS-B
Tue 06:43:32 AM 43.6520 -121.6370 343° North 407 468 34,000  Level FlightAware ADS-B
Tue 06:44:18 AM 43.7360 -121.6740 342° North 406 467 34,000  Level FlightAware ADS-B
Tue 06:44:54 AM 43.8000 -121.7020 342° North 404 465 34,000  Level FlightAware ADS-B
Tue 06:45:38 AM 43.8790 -121.7370 342° North 403 464 34,000 -375 Level FlightAware ADS-B
Tue 06:45:58 AM 43.9140 -121.7520 343° North 406 467 33,600 -348 Descending FlightAware ADS-B
Tue 06:46:47 AM 43.9880 -121.7860 342° North 406 467 33,600  Level FlightAware ADS-B
Tue 06:47:23 AM 44.0430 -121.8110 342° North 406 467 33,600 -2,480 Level FlightAware ADS-B
Tue 06:48:02 AM 44.1410 -121.8530 343° North 423 487 30,500 -3,042 Descending FlightAware ADS-B
Tue 06:48:34 AM 44.2020 -121.8800 342° North 431 496 30,000 -484 Descending FlightAware ADS-B
Tue 06:49:04 AM 44.2570 -121.9050 342° North 435 501 30,000  Level FlightAware ADS-B
Tue 06:49:38 AM 44.3220 -121.9340 342° North 431 496 30,000  Level FlightAware ADS-B
Tue 06:50:30 AM 44.4200 -121.9780 342° North 427 491 30,000  Level FlightAware ADS-B
Tue 06:51:02 AM 44.4820 -122.0060 342° North 428 493 30,000  Level FlightAware ADS-B
Tue 06:51:37 AM 44.5480 -122.0360 342° North 429 494 30,000  Level FlightAware ADS-B
Tue 06:52:19 AM 44.6270 -122.0720 342° North 427 491 30,000  Level FlightAware ADS-B
Tue 06:53:09 AM 44.7210 -122.1150 342° North 423 487 30,000  Level FlightAware ADS-B
Tue 06:54:26 AM 44.8643 -122.1800 342° North 422 486 30,000  Level FlightAware ADS-B
Tue 06:54:57 AM 44.9217 -122.2060 342° North 424 488 30,000  Level FlightAware ADS-B
Tue 06:55:28 AM 44.9792 -122.2330 342° North 425 489 30,000  Level FlightAware ADS-B
Tue 06:55:58 AM 45.0356 -122.2590 342° North 426 490 30,000  Level FlightAware ADS-B
Tue 06:56:28 AM 45.0931 -122.2850 342° North 428 493 30,000  Level FlightAware ADS-B
Tue 06:56:59 AM 45.1507 -122.3120 342° North 429 494 30,000  Level FlightAware ADS-B
Tue 06:57:30 AM 45.2091 -122.3390 342° North 431 496 30,000  Level FlightAware ADS-B
Tue 06:58:00 AM 45.2662 -122.3650 342° North 433 498 30,000  Level FlightAware ADS-B
Tue 06:58:31 AM 45.3247 -122.3930 341° North 434 499 30,000  Level FlightAware ADS-B
Tue 06:59:01 AM 45.3825 -122.4200 342° North 434 499 30,000  Level FlightAware ADS-B
Tue 06:59:34 AM 45.4457 -122.4490 342° North 435 501 30,000  Level FlightAware ADS-B
Tue 06:59:58 AM 45.4902 -122.4680 343° North 432 497 30,000  Level FlightAware ADS-B
Tue 07:00:10 AM 45.5135 -122.4750 348° North 430 495 30,000  Level FlightAware ADS-B
Tue 07:00:28 AM 45.5491 -122.4830 351° North 427 491 30,000  Level FlightAware ADS-B
Tue 07:00:36 AM 45.5655 -122.4860 353° North 426 490 30,000  Level FlightAware ADS-B
Tue 07:01:06 AM 45.6250 -122.4900 357° North 425 489 30,000  Level FlightAware ADS-B
Tue 07:01:37 AM 45.6849 -122.4930 358° North 426 490 30,000  Level FlightAware ADS-B
Tue 07:02:08 AM 45.7451 -122.4960 358° North 427 491 30,000  Level FlightAware ADS-B
Tue 07:02:38 AM 45.8050 -122.4990 358° North 428 493 30,000  Level FlightAware ADS-B
Tue 07:03:08 AM 45.8648 -122.5020 358° North 429 494 30,000  Level FlightAware ADS-B
Tue 07:03:38 AM 45.9248 -122.5060 357° North 430 495 30,000  Level FlightAware ADS-B
Tue 07:04:08 AM 45.9844 -122.5090 358° North 431 496 30,000  Level FlightAware ADS-B
Tue 07:04:38 AM 46.0444 -122.5130 357° North 431 496 30,000  Level FlightAware ADS-B
Tue 07:05:08 AM 46.1044 -122.5160 358° North 433 498 30,000  Level FlightAware ADS-B
Tue 07:05:38 AM 46.1646 -122.5190 358° North 434 499 30,000  Level FlightAware ADS-B
Tue 07:06:09 AM 46.2252 -122.5230 357° North 435 501 30,000  Level FlightAware ADS-B
Tue 07:06:39 AM 46.2860 -122.5260 358° North 437 503 30,000 -100 Level FlightAware ADS-B
Tue 07:07:09 AM 46.3469 -122.5300 357° North 440 506 29,900 -1,258 Descending FlightAware ADS-B
Tue 07:07:41 AM 46.4123 -122.5330 358° North 437 503 28,700 -2,659 Descending FlightAware ADS-B
Tue 07:08:37 AM 46.5150 -122.5390 358° North 435 501 26,000 -3,030 Descending FlightAware ADS-B
Tue 07:09:22 AM 46.6130 -122.5450 358° North 429 494 23,600 -3,086 Descending FlightAware ADS-B
Tue 07:09:47 AM 46.6600 -122.5480 357° North 424 488 22,400 -2,965 Descending FlightAware ADS-B
Tue 07:10:47 AM 46.7770 -122.5550 358° North 403 464 19,400 -1,922 Descending FlightAware ADS-B
Tue 07:11:30 AM 46.8400 -122.5580 358° North 402 463 19,100 -3,273 Descending FlightAware ADS-B
Tue 07:12:26 AM 46.9480 -122.5650 357° North 389 448 14,000 -4,084 Descending FlightAware ADS-B
Tue 07:13:29 AM 47.0621 -122.5500 North 346 398 11,000 -2,824 Descending FlightAware ADS-B
Tue 07:13:34 AM 47.0695 -122.5440 29° Northeast 340 391 10,800 -2,000 Descending FlightAware ADS-B
Tue 07:13:38 AM 47.0747 -122.5380 38° Northeast 336 387 10,700 -1,778 Descending FlightAware ADS-B
Tue 07:14:01 AM 47.1016 -122.5070 38° Northeast 311 358 10,000 -1,231 Descending FlightAware ADS-B
Tue 07:14:17 AM 47.1177 -122.4870 40° Northeast 286 329 9,900 -387 Descending FlightAware ADS-B
Tue 07:14:32 AM 47.1327 -122.4700 38° Northeast 268 308 9,800 -1,355 Descending FlightAware ADS-B
Tue 07:14:48 AM 47.1476 -122.4520 39° Northeast 263 303 9,200 -2,516 Descending FlightAware ADS-B
Tue 07:15:03 AM 47.1622 -122.4340 40° Northeast 262 302 8,500 -2,710 Descending FlightAware ADS-B
Tue 07:15:19 AM 47.1763 -122.4160 41° Northeast 264 304 7,800 -2,323 Descending FlightAware ADS-B
Tue 07:15:34 AM 47.1905 -122.3990 39° Northeast 263 303 7,300 -2,000 Descending FlightAware ADS-B
Tue 07:15:49 AM 47.2053 -122.3820 38° Northeast 261 300 6,800 -1,800 Descending FlightAware ADS-B
Tue 07:16:04 AM 47.2194 -122.3660 38° Northeast 261 300 6,400 -1,800 Descending FlightAware ADS-B
Tue 07:16:19 AM 47.2336 -122.3480 41° Northeast 262 302 5,900 -1,800 Descending FlightAware ADS-B
Tue 07:16:34 AM 47.2474 -122.3320 38° Northeast 261 300 5,500 -1,600 Descending FlightAware ADS-B
Tue 07:16:49 AM 47.2614 -122.3150 39° Northeast 258 297 5,100 -1,680 Descending FlightAware ADS-B
Tue 07:16:59 AM 47.2705 -122.3040 39° Northeast 257 296 4,800 -1,846 Descending FlightAware ADS-B
Tue 07:17:15 AM 47.2848 -122.2870 39° Northeast 255 293 4,300 -2,069 Descending FlightAware ADS-B
Tue 07:17:28 AM 47.2977 -122.2720 38° Northeast 257 296 3,800 -1,714 Descending FlightAware ADS-B
Tue 07:17:43 AM 47.3117 -122.2560 38° Northeast 254 292 3,500 -1,071 Descending FlightAware ADS-B
Tue 07:17:56 AM 47.3237 -122.2430 36° Northeast 247 284 3,300 -828 Descending FlightAware ADS-B
Tue 07:18:12 AM 47.3372 -122.2280 37° Northeast 240 276 3,100 -774 Descending FlightAware ADS-B
Tue 07:18:27 AM 47.3504 -122.2130 38° Northeast 236 272 2,900 -1,000 Descending FlightAware ADS-B
Tue 07:18:30 AM 47.3535 -122.2100 33° Northeast 235 270 2,800 -1,714 Descending FlightAware ADS-B
Tue 07:18:34 AM 47.3568 -122.2070 32° Northeast 236 272 2,700 -857 Descending FlightAware ADS-B
Tue 07:18:37 AM 47.3601 -122.2050 22° Northeast 234 269 2,700 -857 Level FlightAware ADS-B
Tue 07:18:41 AM 47.3646 -122.2030 17° North 236 272 2,600 -1,500 Descending FlightAware ADS-B
Tue 07:18:45 AM 47.3686 -122.2020 10° North 236 272 2,500 -1,500 Descending FlightAware ADS-B
Tue 07:18:49 AM 47.3723 -122.2020 360° North 235 270 2,400 -857 Descending FlightAware ADS-B
Tue 07:18:52 AM 47.3758 -122.2020 360° North 234 269 2,400 -429 Level FlightAware ADS-B
Tue 07:19:03 AM 47.3881 -122.2030 357° North 227 261 2,300 -545 Descending FlightAware ADS-B
Tue 07:19:14 AM 47.3992 -122.2040 357° North 220 253 2,200 -571 Descending FlightAware ADS-B
Tue 07:19:24 AM 47.4091 -122.2040 360° North 215 247 2,100 -857 Descending FlightAware ADS-B
Tue 07:19:28 AM 47.4125 -122.2050 349° North 213 245 2,000 -857 Descending FlightAware ADS-B
Tue 07:19:31 AM 47.4153 -122.2070 334° Northwest 209 241 2,000  Level FlightAware ADS-B
Tue 07:19:34 AM 47.4179 -122.2080 345° North 205 236 2,000  Level FlightAware ADS-B
Tue 07:19:38 AM 47.4210 -122.2110 327° Northwest 199 229 2,000  Level FlightAware ADS-B
Tue 07:19:45 AM 47.4270 -122.2160 331° Northwest 183 211 2,000  Level FlightAware ADS-B
Tue 07:19:54 AM 47.4331 -122.2210 331° Northwest 170 196 2,000 -316 Level FlightAware ADS-B
Tue 07:20:04 AM 47.4398 -122.2270 329° Northwest 168 193 1,900 -720 Descending FlightAware ADS-B
Tue 07:20:19 AM 47.4496 -122.2350 331° Northwest 155 178 1,700 -720 Descending FlightAware ADS-B
Tue 07:20:29 AM 47.4556 -122.2400 331° Northwest 145 167 1,600 -857 Descending FlightAware ADS-B
Tue 07:20:40 AM 47.4619 -122.2450 332° Northwest 145 167 1,400 -900 Descending FlightAware ADS-B
Tue 07:20:49 AM 47.4672 -122.2500 327° Northwest 143 165 1,300 -667 Descending FlightAware ADS-B
Tue 07:20:58 AM 47.4718 -122.2530 336° Northwest 143 165 1,200 -857 Descending FlightAware ADS-B
Tue 07:21:10 AM 47.4793 -122.2600 328° Northwest 148 170 1,000 -913 Descending FlightAware ADS-B
Tue 07:21:44 AM 47.4990 -122.2760 331° Northwest 159 183 500 -484 Descending FlightAware ADS-B
Tue 07:22:12 AM 47.5140 -122.2900 328° Northwest 159 183 500 30,517 Level FlightAware ADS-B
Tue 07:22:42 AM 47.5322 -122.3042 328° Northwest 148 170 30,000 59,000 Climbing Seattle Center
Tue 07:24:00 AM 47.5300 -122.3020 146° Southeast  Level Estimated

Login

Don't have an account? Register now (free) for customized features, flight alerts, and more!